This is the latest recevied weather packets stored in our database for station/object KF7SOJ. If no packets are shown the sender has not sent any weather packets the latest 10 day(s).
| Time | Temp. | Humidity | Pressure | Rain* | Wind** | Luminosity | Snow |
|---|---|---|---|---|---|---|---|
| 1787838659 | 20° C | 47% | 935.1 hPa | 0 mm | - | 109 W/m² | - |
| 1787838358 | 20° C | 47% | 935.2 hPa | 0 mm | - | 96 W/m² | - |
| 1787838058 | 19.44° C | 48% | 935.3 hPa | 0 mm | - | 85 W/m² | - |
| 1787837757 | 18.89° C | 51% | 935 hPa | 0 mm | - | 75 W/m² | - |
| 1787837452 | 17.78° C | 57% | 935.1 hPa | 0 mm | - | 67 W/m² | - |
| 1787837147 | 18.33° C | 56% | 934.9 hPa | 0 mm | - | 60 W/m² | - |
| 1787836846 | 18.33° C | 52% | 935 hPa | 0 mm | - | 54 W/m² | - |
| 1787836541 | 17.78° C | 53% | 934.9 hPa | 0 mm | - | 48 W/m² | - |
| 1787836236 | 17.78° C | 54% | 935.1 hPa | 0 mm | - | 40 W/m² | - |
| 1787835932 | 17.22° C | 54% | 935 hPa | 0 mm | - | 35 W/m² | - |
| 1787835632 | 17.22° C | 54% | 934.9 hPa | 0 mm | - | 29 W/m² | - |
| 1787835332 | 17.22° C | 54% | 934.9 hPa | 0 mm | - | 24 W/m² | - |
| 1787835027 | 17.78° C | 53% | 934.9 hPa | 0 mm | - | 19 W/m² | - |
| 1787834726 | 17.78° C | 53% | 935.1 hPa | 0 mm | - | 15 W/m² | - |
| 1787834421 | 17.78° C | 53% | 935.1 hPa | 0 mm | - | 11 W/m² | - |
| 1787834117 | 18.33° C | 51% | 935 hPa | 0 mm | - | 8 W/m² | - |
| 1787833812 | 18.33° C | 51% | 935 hPa | 0 mm | - | 5 W/m² | - |
| 1787833507 | 18.33° C | 51% | 934.9 hPa | 0 mm | - | 3 W/m² | - |
| 1787833203 | 18.33° C | 51% | 934.9 hPa | 0 mm | - | 1 W/m² | - |
| 1787832898 | 18.33° C | 51% | 934.9 hPa | 0 mm | - | 1 W/m² | - |
| 1787832594 | 18.33° C | 51% | 934.7 hPa | 0 mm | - | 0 W/m² | - |
| 1787832293 | 18.33° C | 51% | 935 hPa | 0 mm | - | 0 W/m² | - |
| 1787831990 | 18.89° C | 50% | 935 hPa | 0 mm | - | 0 W/m² | - |
| 1787831686 | 18.89° C | 50% | 934.8 hPa | 0 mm | - | 0 W/m² | - |
| 1787831385 | 18.89° C | 51% | 934.8 hPa | 0 mm | - | 0 W/m² | - |
* Rain latest hour (hover to see other rain measurements)
** Current wind speed in m/s (hover to see current wind gust speed)